Walla Walla, Washington
Current Conditions -  °F | °C
As of 1:53 AM on Friday 19 Dec 2014 (Local Time) from KALW Reporting Station
Overcast Overcast  
Wind Chill: 52°   Ceiling: 9000
Heat Index: 52°   Visibility: 10mi
Dew Point: 38°   Wind: 3mph
Humidity: 59%   Direction: NA
Pressure: 29.85"   Gusts: NA
Location:  46.07°N, 118.34°W
Report Text: KALW 190953Z AUTO VRB03KT 10SM SCT065 OVC090 11/03 A2985 RMK AO2 RAB32E44 SLP110 P0000 T01110033
Loading
Personal Weather Stations






























Interactive Weather Map New forecast layout! Learn more

10-Day Weather Forecast

Advertisements
Track Severe Weather on mobile